Perryville, KY

2:06 AM EDT on July 31, 2014 (GMT -0400)
Capital City (KFFT) Elev 804 ft | 38.18 °N, 84.90 °W | Change Station

Current weather conditions updated 1 hour ago

Partly Cloudy
Partly Cloudy
62 °F
Feels Like 62 °F
N
0
Wind Variable Wind from North

Today is forecast to be Warmer than yesterday.

Today
High -- | Low -- °F
--% Chance of Precip.
Yesterday
High -- | Low -- °F
Precip. -- in
6:42 AM 8:49 PM
Waxing Crescent, 16% visible
Pressure 30.07 in
Visibility 9.0 miles
Clouds Few 5000 ft
Dew Point 59 °F
Humidity 90%
Rainfall 0.00 in
Snow Depth Not available.
UV 0 out of 12
Pollen 5.20 out of 12
Air Quality Not available.
Flu Activity Not available.
METAR KFFT 310453Z AUTO 00000KT 9SM FEW050 17/15 A3008 RMK AO2 SLP181 T01670150 402670133

More Conditions Fewer Conditions

Pressure 30.07 in
Visibility 9.0 miles
Clouds Few 5000 ft
Dew Point 59 °F
Humidity 90%
Rainfall 0.00 in
Snow Depth Not available.
UV 0 out of 12
Pollen 5.20 out of 12
Air Quality Not available.
Flu Activity Not available.
METAR KFFT 310453Z AUTO 00000KT 9SM FEW050 17/15 A3008 RMK AO2 SLP181 T01670150 402670133

More Conditions Fewer Conditions

10-Day Weather Forecast

Almanac

Astronomy

Jul. 31, 2014 Rise Set
Actual Time 6:42 AM EDT 8:49 PM EDT
Civil Twilight 6:13 AM EDT 9:18 PM EDT
Nautical Twilight 5:38 AM EDT 9:53 PM EDT
Astronomical Twilight 4:59 AM EDT 10:32 PM EDT
Moon 11:03 AM EDT 11:08 PM EDT
Length of Visible Light 15h 04m
Length of Day
14h 06m
Tomorrow will be 1m 48s shorter.
Waxing Crescent, 16% of the Moon is Illuminated
Today
Waxing Crescent
Aug 3
First Quarter
Aug 10
Full
Aug 17
Last Quarter
Aug 25
New

Today's Extremes

State Highs State Lows

Community

WunderPhotos

Upload Photos

1,739,251 photos uploaded!

Nearby

Snow Depth

Station Depth Elevation
No new snow has been reported.

Earthquake Activity

City Distance Mag. Time & Date
No recent earthquake activity has been reported nearby.
Minimum magnitude displayed is 2.5.

Coastal Water Temperatures

Place Temperature
No Stations Reporting

Nearby Weather Stations

Station Location Temp. Dew Point Humidity Wind Precip. Elev Updated Type
Perryville, KY, Danville, KY 61.5 °F 61 °F 99% SE  at  0.0 mph 0.00 in / hr 915 ft 2:06 AM EDT Normal
Rocky Fork, Lancaster, KY 66.4 °F 59 °F 78% NE  at  0.0 mph 0.00 in / hr 804 ft 2:06 AM EDT Rapid Fire

Show More Stations Show Fewer Stations